Time;durP1;ratioP1;P1;durP2;ratioP2;P2;SDS_P1;SDS_P2;PMS_P1;PMS_P2;Temp;Humidity;BMP_temperature;BMP_pressure;BME280_temperature;BME280_humidity;BME280_pressure;Samples;Min_cycle;Max_cycle;Signal;HPM_P1;HPM_P2
2024/02/06 00:02:15;;;;;;;18.73;7.43;;;5.10;99.90;;;;;;5037048;28;20025;-93
2024/02/06 00:04:42;;;;;;;23.52;10.27;;;5.20;99.90;;;;;;5037033;28;20033;-91
2024/02/06 00:07:08;;;;;;;22.33;12.27;;;5.20;99.90;;;;;;5036991;28;20032;-94
2024/02/06 00:09:34;;;;;;;22.95;8.27;;;5.20;99.90;;;;;;5037056;28;20077;-92
2024/02/06 00:11:59;;;;;;;18.88;7.68;;;5.20;99.90;;;;;;5036883;28;20126;-90
2024/02/06 00:14:25;;;;;;;21.58;8.32;;;5.30;99.90;;;;;;5011784;28;20076;-90
2024/02/06 00:16:51;;;;;;;20.85;8.27;;;5.30;99.90;;;;;;5038113;28;20029;-91
2024/02/06 00:19:16;;;;;;;18.13;8.70;;;5.30;99.90;;;;;;5037257;28;20148;-92
2024/02/06 00:21:42;;;;;;;21.30;8.82;;;5.40;99.90;;;;;;5036200;28;20726;-90
2024/02/06 00:24:08;;;;;;;21.88;8.63;;;5.40;99.90;;;;;;5019066;28;20480;-92
2024/02/06 00:26:33;;;;;;;19.38;8.98;;;5.40;99.90;;;;;;5036505;28;20036;-90
2024/02/06 00:28:59;;;;;;;19.42;10.13;;;5.50;99.90;;;;;;5037358;28;20021;-91
2024/02/06 00:31:24;;;;;;;22.65;8.68;;;5.40;99.90;;;;;;5036919;28;20057;-92
2024/02/06 00:33:50;;;;;;;16.75;8.25;;;5.50;99.90;;;;;;5037047;28;20490;-93
2024/02/06 00:36:16;;;;;;;20.17;9.15;;;5.50;99.90;;;;;;5035557;28;20087;-91
2024/02/06 00:38:41;;;;;;;23.63;8.75;;;5.50;99.90;;;;;;5036658;28;20026;-90
2024/02/06 00:41:08;;;;;;;21.27;9.27;;;5.50;99.90;;;;;;5035654;28;20451;-91
2024/02/06 00:43:33;;;;;;;23.35;8.35;;;5.50;99.90;;;;;;5036871;28;20060;-92
2024/02/06 00:46:00;;;;;;;20.23;8.63;;;5.50;99.90;;;;;;5036363;28;20026;-91
2024/02/06 00:48:25;;;;;;;21.25;8.88;;;5.50;99.90;;;;;;5036224;28;20053;-91
2024/02/06 00:50:51;;;;;;;20.65;9.38;;;5.50;99.90;;;;;;5036451;28;20031;-91
2024/02/06 00:53:17;;;;;;;21.23;8.77;;;5.40;99.90;;;;;;5037046;28;20116;-94
2024/02/06 00:55:42;;;;;;;23.52;9.30;;;5.50;99.90;;;;;;5036129;28;20034;-90
2024/02/06 00:58:08;;;;;;;19.90;9.85;;;5.50;99.90;;;;;;5036265;28;20396;-90
2024/02/06 01:00:35;;;;;;;18.23;10.15;;;5.50;99.90;;;;;;5017194;28;20057;-92
2024/02/06 01:03:01;;;;;;;18.20;9.27;;;5.50;99.90;;;;;;5036004;28;20536;-90
2024/02/06 01:05:27;;;;;;;20.35;8.15;;;5.60;99.90;;;;;;5036359;28;20061;-91
2024/02/06 01:07:53;;;;;;;22.85;9.65;;;5.50;99.90;;;;;;5035264;28;20025;-90
2024/02/06 01:10:19;;;;;;;23.50;9.13;;;5.60;99.90;;;;;;5035271;28;20029;-92
2024/02/06 01:12:44;;;;;;;21.25;10.63;;;5.60;99.90;;;;;;5035915;28;20045;-90
2024/02/06 01:15:10;;;;;;;17.98;8.55;;;5.50;99.90;;;;;;5036393;28;20035;-91
2024/02/06 01:17:36;;;;;;;19.17;11.30;;;5.60;99.90;;;;;;5036210;28;20175;-93
2024/02/06 01:20:02;;;;;;;23.60;8.65;;;5.60;99.90;;;;;;5036059;28;20026;-91
2024/02/06 01:22:27;;;;;;;25.17;11.18;;;5.60;99.90;;;;;;5028914;28;20049;-91
2024/02/06 01:24:54;;;;;;;23.98;11.07;;;5.60;99.90;;;;;;5042204;28;20112;-89
2024/02/06 01:27:19;;;;;;;21.35;10.18;;;5.60;99.90;;;;;;5036765;28;20125;-90
2024/02/06 01:29:47;;;;;;;24.38;10.35;;;5.60;99.90;;;;;;5036163;28;20050;-92
2024/02/06 01:32:13;;;;;;;;;;;5.60;99.90;;;;;;5035635;28;20025;-91
2024/02/06 01:34:41;;;;;;;23.40;8.80;;;5.60;99.90;;;;;;5018205;28;19905;-90
2024/02/06 01:37:07;;;;;;;22.90;9.32;;;5.60;99.90;;;;;;5035835;28;20028;-92
2024/02/06 01:39:32;;;;;;;19.08;9.52;;;5.60;99.90;;;;;;5035567;28;20022;-93
2024/02/06 01:41:58;;;;;;;18.00;7.80;;;5.60;99.90;;;;;;5035880;28;20028;-91
2024/02/06 01:44:24;;;;;;;30.40;9.98;;;5.60;99.90;;;;;;5036979;28;20362;-90
2024/02/06 01:46:53;;;;;;;29.63;10.05;;;5.60;99.90;;;;;;5035755;28;20032;-92
2024/02/06 01:49:20;;;;;;;17.73;7.82;;;5.60;99.90;;;;;;5017525;28;20053;-94
2024/02/06 01:51:47;;;;;;;22.85;8.70;;;5.70;99.90;;;;;;5035810;28;20042;-92
2024/02/06 01:54:13;;;;;;;25.33;10.10;;;5.70;99.90;;;;;;5035983;28;20022;-91
2024/02/06 01:56:40;;;;;;;18.15;7.68;;;5.70;99.90;;;;;;5040054;28;20401;-92
2024/02/06 01:59:06;;;;;;;24.27;10.10;;;5.70;99.90;;;;;;5040270;28;20030;-93
2024/02/06 02:01:32;;;;;;;19.65;8.88;;;5.70;99.90;;;;;;5039684;28;20501;-92
2024/02/06 02:03:59;;;;;;;23.38;9.77;;;5.70;99.90;;;;;;5039505;28;20025;-93
2024/02/06 02:06:26;;;;;;;24.30;10.80;;;5.70;99.90;;;;;;5040097;28;20014;-91
2024/02/06 02:08:51;;;;;;;22.83;8.32;;;5.70;99.90;;;;;;5040375;28;20416;-92
2024/02/06 02:11:17;;;;;;;24.63;8.65;;;5.70;99.90;;;;;;5041603;28;20036;-91
2024/02/06 02:13:44;;;;;;;23.92;9.43;;;5.70;99.90;;;;;;5044202;28;20030;-90
2024/02/06 02:16:11;;;;;;;24.35;8.23;;;5.70;99.90;;;;;;5040430;28;20029;-92
2024/02/06 02:18:36;;;;;;;21.33;9.15;;;5.70;99.90;;;;;;5039825;28;20025;-90
2024/02/06 02:21:09;;;;;;;27.52;10.63;;;5.70;99.90;;;;;;5042629;28;20442;-92
2024/02/06 02:23:36;;;;;;;20.33;9.48;;;5.70;99.90;;;;;;5035982;28;20503;-92
2024/02/06 02:26:03;;;;;;;17.92;8.90;;;5.70;99.90;;;;;;5038894;28;20033;-89
2024/02/06 02:28:29;;;;;;;18.15;7.85;;;5.70;99.90;;;;;;5040101;28;20021;-92
2024/02/06 02:30:56;;;;;;;17.42;8.52;;;5.70;99.90;;;;;;5038672;28;20021;-91
2024/02/06 02:33:22;;;;;;;23.73;8.88;;;5.70;99.90;;;;;;5038512;28;20531;-92
2024/02/06 02:35:47;;;;;;;25.30;8.40;;;5.80;99.90;;;;;;5039588;28;20044;-91
2024/02/06 02:38:13;;;;;;;20.23;9.73;;;5.80;99.90;;;;;;5033155;28;20104;-90
2024/02/06 02:40:39;;;;;;;26.25;7.68;;;5.70;99.90;;;;;;5039169;28;20032;-94
2024/02/06 02:43:04;;;;;;;27.02;10.15;;;5.70;99.90;;;;;;5039291;28;20033;-88
2024/02/06 02:45:30;;;;;;;25.30;9.02;;;5.70;99.90;;;;;;5039528;28;20120;-91
2024/02/06 02:47:56;;;;;;;19.20;8.15;;;5.70;99.90;;;;;;5039625;28;20021;-91
2024/02/06 02:50:21;;;;;;;22.88;9.90;;;5.70;99.90;;;;;;5037892;28;20040;-93
2024/02/06 02:52:47;;;;;;;21.30;8.43;;;5.70;99.90;;;;;;5038809;28;20034;-88
2024/02/06 02:55:12;;;;;;;25.02;9.77;;;5.70;99.90;;;;;;5039646;28;20028;-92
2024/02/06 02:57:38;;;;;;;23.20;7.53;;;5.70;99.90;;;;;;5021059;28;20037;-89
2024/02/06 03:00:04;;;;;;;18.95;8.70;;;5.70;99.90;;;;;;5038859;28;20064;-92
2024/02/06 03:02:30;;;;;;;20.33;8.90;;;5.70;99.90;;;;;;5035708;28;20060;-92
2024/02/06 03:04:55;;;;;;;30.20;10.77;;;5.70;99.90;;;;;;5038790;28;20029;-93
2024/02/06 03:07:21;;;;;;;28.65;11.30;;;5.70;99.90;;;;;;5038618;28;20292;-91
2024/02/06 03:09:47;;;;;;;22.38;8.57;;;5.70;99.90;;;;;;5038276;28;20052;-92
2024/02/06 03:12:12;;;;;;;23.35;8.95;;;5.70;99.90;;;;;;5020588;28;20508;-90
2024/02/06 03:14:38;;;;;;;22.65;10.85;;;5.70;99.90;;;;;;5038918;28;20022;-90
2024/02/06 03:17:03;;;;;;;29.55;9.60;;;5.60;99.90;;;;;;5038452;28;20093;-89
2024/02/06 03:19:29;;;;;;;22.48;9.05;;;5.70;99.90;;;;;;5038222;28;20028;-91
2024/02/06 03:21:55;;;;;;;22.98;8.05;;;5.70;99.90;;;;;;5020204;28;20083;-90
2024/02/06 03:24:27;;;;;;;23.90;10.55;;;5.70;99.90;;;;;;5020454;28;20089;-91
2024/02/06 03:26:53;;;;;;;22.48;9.70;;;5.70;99.90;;;;;;5038263;28;20479;-90
2024/02/06 03:29:19;;;;;;;27.10;9.40;;;5.60;99.90;;;;;;5038176;28;20017;-91
2024/02/06 03:31:44;;;;;;;26.33;13.10;;;5.70;99.90;;;;;;5038430;28;20021;-92
2024/02/06 03:34:10;;;;;;;22.75;9.02;;;5.70;99.90;;;;;;5038305;28;20101;-91
2024/02/06 03:36:39;;;;;;;27.77;10.55;;;5.60;99.90;;;;;;5038618;28;20500;-91
2024/02/06 03:39:05;;;;;;;27.65;9.40;;;5.60;99.90;;;;;;5038975;28;20017;-90
2024/02/06 03:41:30;;;;;;;27.70;11.45;;;5.60;99.90;;;;;;5040176;28;20051;-91
2024/02/06 03:43:56;;;;;;;28.27;10.45;;;5.60;99.90;;;;;;5039198;28;20068;-89
2024/02/06 03:46:22;;;;;;;22.00;9.30;;;5.60;99.90;;;;;;5038638;28;20029;-91
2024/02/06 03:48:47;;;;;;;25.98;10.05;;;5.60;99.90;;;;;;5041429;28;20017;-93
2024/02/06 03:51:13;;;;;;;19.98;9.32;;;5.60;99.90;;;;;;5038237;28;20026;-93
2024/02/06 03:53:39;;;;;;;22.50;8.63;;;5.60;99.90;;;;;;5037520;28;20021;-93
2024/02/06 03:56:05;;;;;;;28.30;10.63;;;5.60;99.90;;;;;;5037694;28;20113;-91
2024/02/06 03:58:30;;;;;;;23.50;10.93;;;5.60;99.90;;;;;;5018560;28;20430;-91
2024/02/06 04:00:56;;;;;;;20.55;9.15;;;5.50;99.90;;;;;;5036232;28;20025;-90
2024/02/06 04:03:21;;;;;;;22.85;9.50;;;5.60;99.90;;;;;;5036999;28;20044;-91
2024/02/06 04:05:47;;;;;;;22.85;9.80;;;5.60;99.90;;;;;;5036767;28;20032;-92
2024/02/06 04:08:13;;;;;;;27.25;12.07;;;5.60;99.90;;;;;;5036905;28;20270;-92
2024/02/06 04:10:38;;;;;;;31.35;9.82;;;5.60;99.90;;;;;;5035292;28;20028;-91
2024/02/06 04:13:06;;;;;;;20.58;9.20;;;5.50;99.90;;;;;;5044024;28;20029;-93
2024/02/06 04:15:32;;;;;;;23.40;9.70;;;5.60;99.90;;;;;;5037760;28;20036;-91
2024/02/06 04:17:58;;;;;;;21.15;9.20;;;5.50;99.90;;;;;;5020361;28;20030;-90
2024/02/06 04:20:23;;;;;;;29.35;10.23;;;5.50;99.90;;;;;;5036867;28;20026;-90
2024/02/06 04:22:49;;;;;;;21.67;10.73;;;5.60;99.90;;;;;;5037739;28;20026;-91
2024/02/06 04:25:15;;;;;;;20.73;9.10;;;5.50;99.90;;;;;;5019054;28;20029;-90
2024/02/06 04:27:41;;;;;;;21.75;8.57;;;5.50;99.90;;;;;;5036841;28;20051;-92
2024/02/06 04:30:07;;;;;;;22.05;9.02;;;5.50;99.90;;;;;;5037599;28;20025;-93
2024/02/06 04:32:33;;;;;;;18.52;8.15;;;5.50;99.90;;;;;;5036243;28;20679;-92
2024/02/06 04:34:58;;;;;;;20.65;8.30;;;5.50;99.90;;;;;;5036850;28;20029;-93
2024/02/06 04:37:24;;;;;;;22.95;9.88;;;5.50;99.90;;;;;;5037943;28;20024;-91
2024/02/06 04:39:49;;;;;;;20.58;8.25;;;5.40;99.90;;;;;;5038900;28;20029;-92
2024/02/06 04:42:15;;;;;;;24.65;9.57;;;5.50;99.90;;;;;;5040682;28;20017;-91
2024/02/06 04:44:42;;;;;;;21.23;8.90;;;5.50;99.90;;;;;;5040549;28;20029;-93
2024/02/06 04:47:07;;;;;;;19.27;8.95;;;5.40;99.90;;;;;;5040524;28;20025;-92
2024/02/06 04:49:33;;;;;;;20.73;8.35;;;5.40;99.90;;;;;;5038635;28;20400;-92
2024/02/06 04:51:58;;;;;;;18.83;9.02;;;5.50;99.90;;;;;;5037241;28;20040;-92
2024/02/06 04:54:24;;;;;;;25.63;9.70;;;5.50;99.90;;;;;;5037872;28;20049;-91
2024/02/06 04:56:49;;;;;;;15.48;9.52;;;5.40;99.90;;;;;;5036352;28;20025;-91
2024/02/06 04:59:15;;;;;;;22.35;9.15;;;5.40;99.90;;;;;;5035640;28;20081;-91
2024/02/06 05:01:41;;;;;;;23.88;9.52;;;5.40;99.90;;;;;;5036188;28;20310;-89
2024/02/06 05:04:07;;;;;;;27.25;9.48;;;5.40;99.90;;;;;;5036114;28;20029;-91
2024/02/06 05:06:33;;;;;;;18.15;8.60;;;5.40;99.90;;;;;;5020451;28;20116;-91
2024/02/06 05:08:59;;;;;;;16.80;7.38;;;5.30;99.90;;;;;;5038206;28;20048;-91
2024/02/06 05:11:25;;;;;;;17.25;8.48;;;5.40;99.90;;;;;;5035345;28;20085;-89
2024/02/06 05:13:50;;;;;;;20.95;10.02;;;5.40;99.90;;;;;;5036255;28;20026;-90
2024/02/06 05:16:17;;;;;;;17.45;9.50;;;5.40;99.90;;;;;;5020529;28;20029;-92
2024/02/06 05:18:42;;;;;;;16.85;9.55;;;5.40;99.90;;;;;;5037009;28;20056;-91
2024/02/06 05:21:08;;;;;;;18.40;8.27;;;5.30;99.90;;;;;;5036861;28;20055;-93
2024/02/06 05:23:34;;;;;;;19.95;9.05;;;5.40;99.90;;;;;;5036053;28;20026;-91
2024/02/06 05:25:59;;;;;;;22.05;10.18;;;5.40;99.90;;;;;;5035761;28;20021;-90
2024/02/06 05:28:25;;;;;;;16.30;8.20;;;5.40;99.90;;;;;;5041152;28;20021;-91
2024/02/06 05:30:51;;;;;;;22.77;9.38;;;5.40;99.90;;;;;;5055262;28;20020;-96
2024/02/06 05:33:16;;;;;;;17.83;7.38;;;5.50;99.90;;;;;;5056205;28;20021;-92
2024/02/06 05:35:42;;;;;;;18.45;8.15;;;5.40;99.70;;;;;;5025492;28;20021;-92
2024/02/06 05:38:08;;;;;;;14.93;7.80;;;5.50;99.90;;;;;;5021190;28;20025;-91
2024/02/06 05:40:34;;;;;;;16.02;9.40;;;5.40;99.90;;;;;;5038750;28;20028;-89
2024/02/06 05:42:59;;;;;;;15.45;7.55;;;5.50;99.90;;;;;;5044699;28;20028;-90
2024/02/06 05:45:25;;;;;;;15.90;6.75;;;5.40;99.70;;;;;;5020605;28;20187;-93
2024/02/06 05:47:50;;;;;;;20.33;8.88;;;5.50;99.90;;;;;;5036921;28;20653;-91
2024/02/06 05:50:16;;;;;;;12.70;8.23;;;5.50;99.90;;;;;;5037992;28;20027;-92
2024/02/06 05:52:42;;;;;;;15.65;6.93;;;5.50;99.90;;;;;;5046941;28;20025;-92
2024/02/06 05:55:08;;;;;;;16.25;8.10;;;5.50;99.50;;;;;;5038296;28;20025;-91
2024/02/06 05:57:34;;;;;;;14.38;6.93;;;5.50;99.40;;;;;;5041808;28;20769;-91
2024/02/06 05:59:59;;;;;;;14.80;6.95;;;5.50;99.30;;;;;;5044699;28;20031;-92
2024/02/06 06:02:25;;;;;;;12.95;7.43;;;5.50;99.20;;;;;;5045115;28;20030;-89
2024/02/06 06:04:51;;;;;;;14.63;6.82;;;5.50;99.20;;;;;;5047859;28;20403;-92
2024/02/06 06:07:16;;;;;;;16.77;8.02;;;5.50;99.50;;;;;;5025339;28;20037;-91
2024/02/06 06:09:42;;;;;;;17.73;9.05;;;5.50;98.80;;;;;;5020685;28;20038;-93
2024/02/06 06:12:08;;;;;;;20.02;7.43;;;5.50;99.20;;;;;;5023716;28;20132;-91
2024/02/06 06:14:33;;;;;;;19.23;7.45;;;5.50;98.90;;;;;;5001246;28;20030;-95
2024/02/06 06:17:00;;;;;;;21.20;9.30;;;5.50;99.30;;;;;;5019400;28;20046;-96
2024/02/06 06:19:25;;;;;;;17.92;7.55;;;5.50;99.40;;;;;;5025792;28;20096;-91
2024/02/06 06:21:51;;;;;;;18.40;7.35;;;5.50;99.20;;;;;;5004591;28;20134;-92
2024/02/06 06:24:16;;;;;;;19.15;7.88;;;5.40;99.60;;;;;;5023917;28;20488;-93
2024/02/06 06:26:42;;;;;;;19.20;11.15;;;5.40;99.60;;;;;;5026802;28;20277;-90
2024/02/06 06:29:11;;;;;;;16.85;8.27;;;5.50;99.90;;;;;;5035555;28;20029;-92
2024/02/06 06:31:36;;;;;;;16.83;8.20;;;5.40;99.90;;;;;;5037197;28;20081;-90
2024/02/06 06:34:04;;;;;;;21.13;8.48;;;5.50;99.90;;;;;;5021427;28;20049;-90
2024/02/06 06:36:30;;;;;;;19.35;9.32;;;5.50;99.90;;;;;;5040403;28;20041;-91
2024/02/06 06:38:57;;;;;;;18.45;9.27;;;5.40;99.90;;;;;;5040120;28;20040;-91
2024/02/06 06:41:25;;;;;;;16.45;7.57;;;5.40;99.90;;;;;;5038669;28;20036;-90
2024/02/06 06:43:53;;;;;;;21.27;9.07;;;5.40;99.90;;;;;;5024482;28;20036;-90
2024/02/06 06:46:19;;;;;;;19.42;9.15;;;5.40;99.90;;;;;;5023702;28;20037;-88
2024/02/06 06:48:45;;;;;;;20.35;7.35;;;5.40;99.90;;;;;;5024558;28;20021;-90
2024/02/06 06:51:10;;;;;;;19.63;8.25;;;5.40;99.90;;;;;;5041125;28;20047;-89
2024/02/06 06:53:36;;;;;;;15.93;7.05;;;5.40;99.90;;;;;;5041742;28;20026;-89
2024/02/06 06:56:03;;;;;;;18.13;9.32;;;5.50;99.90;;;;;;5042143;28;20033;-89
2024/02/06 06:58:29;;;;;;;16.52;7.53;;;5.40;99.80;;;;;;5041129;28;20017;-91
2024/02/06 07:00:55;;;;;;;16.70;7.25;;;5.50;99.90;;;;;;5023295;28;20035;-89
2024/02/06 07:03:21;;;;;;;21.02;8.77;;;5.50;99.90;;;;;;5041208;28;20029;-89
2024/02/06 07:05:51;;;;;;;17.00;6.88;;;5.50;99.90;;;;;;5040945;28;20075;-90
2024/02/06 07:08:17;;;;;;;23.05;9.57;;;5.40;99.90;;;;;;5023887;28;20018;-90
2024/02/06 07:10:42;;;;;;;13.88;6.07;;;5.50;99.90;;;;;;5039478;28;20029;-89
2024/02/06 07:13:08;;;;;;;17.73;7.85;;;5.50;99.70;;;;;;5040925;28;20017;-91
2024/02/06 07:15:34;;;;;;;16.27;6.88;;;5.50;99.90;;;;;;5022785;28;20037;-91
2024/02/06 07:18:00;;;;;;;16.23;7.25;;;5.50;99.60;;;;;;5040372;28;20029;-90
2024/02/06 07:20:25;;;;;;;16.88;7.50;;;5.50;99.90;;;;;;5040241;28;20113;-90
2024/02/06 07:22:52;;;;;;;28.52;7.95;;;5.50;99.90;;;;;;5021902;28;20484;-91
2024/02/06 07:25:18;;;;;;;15.73;6.72;;;5.60;99.30;;;;;;5040629;28;20037;-89
2024/02/06 07:27:44;;;;;;;15.80;5.97;;;5.60;99.40;;;;;;5022036;28;20033;-89
2024/02/06 07:30:10;;;;;;;16.23;6.60;;;5.60;98.80;;;;;;5022148;28;20025;-90
2024/02/06 07:32:36;;;;;;;13.98;6.47;;;5.70;98.00;;;;;;5021747;28;20372;-91
2024/02/06 07:35:02;;;;;;;16.50;5.78;;;5.80;97.30;;;;;;5039170;28;20027;-90
2024/02/06 07:37:27;;;;;;;11.82;5.13;;;5.80;97.20;;;;;;5042595;28;20050;-89
2024/02/06 07:39:53;;;;;;;15.88;5.13;;;5.90;96.10;;;;;;5041756;28;20040;-90
2024/02/06 07:42:19;;;;;;;9.23;4.40;;;6.00;95.90;;;;;;5040807;28;20388;-90
2024/02/06 07:44:45;;;;;;;15.27;5.55;;;6.10;95.30;;;;;;5039676;28;20025;-90
2024/02/06 07:47:10;;;;;;;9.02;4.60;;;6.20;94.80;;;;;;5039699;28;20076;-90
2024/02/06 07:49:36;;;;;;;18.08;5.75;;;6.20;94.30;;;;;;5022506;28;20025;-89
2024/02/06 07:52:04;;;;;;;11.07;4.95;;;6.20;93.70;;;;;;5022239;28;20053;-90
2024/02/06 07:54:30;;;;;;;10.07;4.05;;;6.20;93.90;;;;;;5038806;28;20144;-91
2024/02/06 07:56:56;;;;;;;8.27;3.75;;;6.40;93.60;;;;;;5038480;28;20096;-92
2024/02/06 07:59:21;;;;;;;8.30;4.30;;;6.40;93.10;;;;;;5036707;28;20480;-93
2024/02/06 08:01:47;;;;;;;8.20;3.85;;;6.50;93.20;;;;;;5037641;28;20022;-91
2024/02/06 08:04:13;;;;;;;10.60;4.13;;;6.40;92.30;;;;;;5037608;28;20108;-89
2024/02/06 08:06:39;;;;;;;9.30;4.10;;;6.50;92.30;;;;;;5036752;28;20030;-90
2024/02/06 08:09:05;;;;;;;10.75;3.85;;;6.60;92.50;;;;;;5036729;28;20038;-93
2024/02/06 08:11:31;;;;;;;6.97;3.47;;;6.60;92.40;;;;;;5022380;28;20025;-92
2024/02/06 08:13:59;;;;;;;7.18;2.88;;;6.60;92.40;;;;;;5002170;28;20026;-96
2024/02/06 08:16:25;;;;;;;8.85;4.28;;;6.60;92.00;;;;;;5000541;28;20029;-93
2024/02/06 08:18:50;;;;;;;8.00;4.70;;;6.70;92.60;;;;;;5019011;28;20033;-91
2024/02/06 08:21:16;;;;;;;7.50;4.10;;;6.70;92.40;;;;;;5014621;28;20037;-91
2024/02/06 08:23:42;;;;;;;11.00;4.63;;;6.70;92.30;;;;;;5022344;28;20827;-92
2024/02/06 08:26:08;;;;;;;9.63;4.60;;;6.80;91.40;;;;;;5017790;28;20090;-93
2024/02/06 08:28:34;;;;;;;12.70;3.85;;;6.80;90.30;;;;;;4999320;28;20033;-92
2024/02/06 08:30:59;;;;;;;6.15;2.70;;;6.90;91.30;;;;;;5000640;28;20025;-94
2024/02/06 08:33:25;;;;;;;5.70;3.10;;;6.90;90.70;;;;;;5020755;28;20076;-92
2024/02/06 08:35:52;;;;;;;11.50;2.92;;;7.00;90.30;;;;;;5002138;28;20043;-91
2024/02/06 08:38:19;;;;;;;9.50;3.45;;;7.00;89.60;;;;;;5004851;28;20029;-93
2024/02/06 08:40:47;;;;;;;8.68;2.83;;;7.00;89.40;;;;;;5016961;28;20041;-95
2024/02/06 08:43:13;;;;;;;8.27;5.65;;;7.00;89.40;;;;;;5016632;28;20044;-90
2024/02/06 08:45:38;;;;;;;8.55;2.85;;;7.10;89.60;;;;;;5018883;28;20037;-95
2024/02/06 08:48:04;;;;;;;6.10;2.95;;;7.10;89.50;;;;;;5021854;28;20408;-92
2024/02/06 08:50:33;;;;;;;5.82;3.17;;;7.10;88.60;;;;;;5015550;28;20028;-93
2024/02/06 08:52:59;;;;;;;12.02;3.20;;;7.20;89.20;;;;;;5017355;28;20037;-95
2024/02/06 08:55:25;;;;;;;6.22;3.67;;;7.20;88.40;;;;;;5026662;28;20571;-96
2024/02/06 08:57:51;;;;;;;6.03;5.07;;;7.30;88.50;;;;;;5021605;28;20313;-94
2024/02/06 09:00:17;;;;;;;8.73;4.00;;;7.30;87.70;;;;;;5018842;28;20057;-91
2024/02/06 09:02:43;;;;;;;6.80;3.90;;;7.30;88.20;;;;;;5022755;28;20448;-91
2024/02/06 09:05:08;;;;;;;5.50;3.20;;;7.30;88.70;;;;;;5019880;28;20138;-91
2024/02/06 09:07:34;;;;;;;7.13;3.28;;;7.30;88.20;;;;;;5017805;28;20117;-91
2024/02/06 09:10:00;;;;;;;7.25;3.63;;;7.30;88.70;;;;;;4998916;28;20694;-95
2024/02/06 09:12:26;;;;;;;6.72;3.42;;;7.30;88.40;;;;;;5014868;28;20041;-92
2024/02/06 09:14:52;;;;;;;11.32;3.80;;;7.30;88.80;;;;;;5020754;28;20027;-92
2024/02/06 09:17:19;;;;;;;9.75;4.45;;;7.30;89.20;;;;;;5014126;28;20080;-93
2024/02/06 09:19:45;;;;;;;9.43;4.15;;;7.30;89.30;;;;;;5019543;28;20028;-93
2024/02/06 09:22:10;;;;;;;10.63;4.63;;;7.40;89.40;;;;;;5012764;28;20396;-92
2024/02/06 09:24:36;;;;;;;15.27;6.50;;;7.40;90.10;;;;;;5018284;28;20079;-89
2024/02/06 09:27:02;;;;;;;17.33;6.35;;;7.30;89.40;;;;;;5018508;28;20068;-91
2024/02/06 09:29:28;;;;;;;11.35;5.10;;;7.20;89.00;;;;;;5018308;28;20025;-89
2024/02/06 09:31:54;;;;;;;10.65;5.05;;;7.30;89.50;;;;;;4992376;28;20022;-95
2024/02/06 09:34:20;;;;;;;13.35;5.60;;;7.30;89.60;;;;;;5019368;28;20090;-91
2024/02/06 09:36:46;;;;;;;12.85;5.55;;;7.40;89.70;;;;;;5019643;28;20052;-91
2024/02/06 09:39:12;;;;;;;9.50;5.38;;;7.30;89.40;;;;;;5014428;28;20551;-91
2024/02/06 09:41:39;;;;;;;15.98;5.75;;;7.30;89.90;;;;;;5014586;28;20036;-93
2024/02/06 09:44:06;;;;;;;15.90;6.65;;;7.30;90.20;;;;;;5016283;28;20052;-91
2024/02/06 09:46:31;;;;;;;15.38;6.20;;;7.30;90.60;;;;;;5016706;28;20079;-91
2024/02/06 09:48:57;;;;;;;17.60;5.85;;;7.30;90.50;;;;;;5022871;28;20057;-94
2024/02/06 09:51:26;;;;;;;15.88;5.68;;;7.30;89.90;;;;;;5016576;28;20041;-94
2024/02/06 09:53:59;;;;;;;11.90;6.55;;;7.20;91.00;;;;;;5015307;28;20060;-90
2024/02/06 09:56:27;;;;;;;13.68;6.60;;;7.20;90.40;;;;;;5021559;28;20130;-94
2024/02/06 09:58:57;;;;;;;16.88;6.60;;;7.30;90.30;;;;;;5020727;28;20107;-96
2024/02/06 10:01:24;;;;;;;17.20;7.18;;;7.30;90.50;;;;;;5017732;28;20034;-91
2024/02/06 10:03:51;;;;;;;14.90;5.53;;;7.20;90.80;;;;;;5002757;28;20402;-91
2024/02/06 10:06:22;;;;;;;14.48;6.03;;;7.20;90.40;;;;;;5013402;28;20041;-92
2024/02/06 10:08:49;;;;;;;13.35;5.65;;;7.30;90.50;;;;;;5018387;28;20026;-93
2024/02/06 10:11:18;;;;;;;14.13;7.18;;;7.20;90.50;;;;;;5014651;28;20026;-92
2024/02/06 10:13:45;;;;;;;22.10;7.63;;;7.20;90.60;;;;;;5015863;28;20033;-90
2024/02/06 10:16:11;;;;;;;17.20;7.65;;;7.30;90.50;;;;;;5002211;28;20110;-94
2024/02/06 10:18:49;;;;;;;19.10;7.13;;;7.30;90.40;;;;;;5021985;28;20104;-93
2024/02/06 10:21:16;;;;;;;19.80;8.00;;;7.30;90.30;;;;;;5019088;28;20080;-94
2024/02/06 10:23:42;;;;;;;15.20;6.82;;;7.30;89.80;;;;;;5018486;28;20580;-91
2024/02/06 10:26:07;;;;;;;16.90;7.50;;;7.30;90.90;;;;;;5022053;28;20036;-90
2024/02/06 10:28:33;;;;;;;10.82;5.90;;;7.30;90.50;;;;;;5019592;28;20018;-92
2024/02/06 10:30:59;;;;;;;17.08;6.85;;;7.30;90.20;;;;;;5015369;28;20028;-91
2024/02/06 10:33:26;;;;;;;17.25;7.13;;;7.40;90.60;;;;;;5024387;28;20030;-91
2024/02/06 10:36:01;;;;;;;20.77;7.40;;;7.40;90.40;;;;;;5023210;28;20080;-94
2024/02/06 10:38:27;;;;;;;13.63;6.55;;;7.40;90.00;;;;;;5022077;28;20102;-93
2024/02/06 10:40:53;;;;;;;15.20;6.88;;;7.40;89.70;;;;;;5020286;28;20033;-92
2024/02/06 10:43:19;;;;;;;10.57;6.18;;;7.40;89.50;;;;;;5022389;28;20088;-92
2024/02/06 10:45:44;;;;;;;13.07;6.53;;;7.40;89.60;;;;;;5020699;28;20578;-91
2024/02/06 10:48:11;;;;;;;11.73;7.28;;;7.50;89.60;;;;;;5018320;28;20145;-91
2024/02/06 10:50:37;;;;;;;15.10;7.35;;;7.40;88.90;;;;;;5000234;28;20060;-92
2024/02/06 10:53:06;;;;;;;16.30;6.97;;;7.50;88.70;;;;;;5005421;28;20492;-91
2024/02/06 10:55:31;;;;;;;11.07;6.50;;;7.60;88.80;;;;;;5006927;28;21169;-93
2024/02/06 10:58:08;;;;;;;16.77;7.00;;;7.50;89.00;;;;;;5026027;28;20031;-92
2024/02/06 11:00:34;;;;;;;10.52;5.68;;;7.60;89.30;;;;;;5029353;28;20029;-91
2024/02/06 11:03:05;;;;;;;13.98;6.60;;;7.50;88.50;;;;;;5024815;28;20060;-92
2024/02/06 11:05:54;;;;;;;12.07;5.97;;;7.50;88.10;;;;;;5017242;28;20433;-93
2024/02/06 11:08:23;;;;;;;13.43;6.03;;;7.60;88.60;;;;;;5000861;28;20392;-92
2024/02/06 11:10:54;;;;;;;11.75;5.85;;;7.60;87.80;;;;;;5018144;28;20051;-92
2024/02/06 11:13:26;;;;;;;11.60;4.68;;;7.50;87.90;;;;;;5018582;28;20282;-91
2024/02/06 11:15:53;;;;;;;9.88;5.57;;;7.60;88.40;;;;;;5019142;28;20025;-95
2024/02/06 11:18:23;;;;;;;10.20;5.28;;;7.70;87.00;;;;;;5019020;28;20033;-92
2024/02/06 11:20:52;;;;;;;8.45;4.20;;;7.70;87.20;;;;;;5020195;28;20108;-95
2024/02/06 11:23:18;;;;;;;10.85;4.05;;;7.70;87.00;;;;;;5019767;28;20044;-92
2024/02/06 11:25:48;;;;;;;8.30;3.03;;;7.70;86.80;;;;;;4996458;28;20116;-94
2024/02/06 11:28:15;;;;;;;6.53;3.88;;;7.80;86.20;;;;;;5001129;28;20448;-93
2024/02/06 11:30:42;;;;;;;7.93;4.45;;;7.70;86.20;;;;;;5016624;28;20022;-92
2024/02/06 11:33:09;;;;;;;8.57;3.30;;;7.80;87.00;;;;;;5026504;28;20455;-93
2024/02/06 11:35:35;;;;;;;7.55;4.00;;;7.80;85.40;;;;;;5035691;28;20087;-93
2024/02/06 11:38:04;;;;;;;7.45;3.83;;;8.00;86.50;;;;;;5017302;28;20483;-93
2024/02/06 11:40:31;;;;;;;9.68;4.32;;;7.90;85.60;;;;;;5037166;28;20104;-90
2024/02/06 11:43:04;;;;;;;7.28;3.90;;;8.00;85.10;;;;;;5044667;28;20029;-92
2024/02/06 11:45:31;;;;;;;7.22;3.40;;;7.90;85.40;;;;;;5027045;28;20037;-92
2024/02/06 11:48:05;;;;;;;8.88;4.57;;;8.10;84.70;;;;;;5019717;28;20117;-92
2024/02/06 11:50:43;;;;;;;8.70;4.55;;;7.90;84.80;;;;;;5036613;28;20029;-92
2024/02/06 11:53:13;;;;;;;8.95;3.75;;;7.90;85.40;;;;;;5037167;28;20017;-91
2024/02/06 11:55:42;;;;;;;10.88;3.92;;;8.00;84.80;;;;;;5035387;28;20553;-91
2024/02/06 11:58:09;;;;;;;6.70;3.42;;;8.10;84.00;;;;;;5014897;28;20029;-93
2024/02/06 12:00:35;;;;;;;6.32;3.50;;;8.00;84.20;;;;;;5018899;28;20280;-93
2024/02/06 12:03:01;;;;;;;8.88;4.20;;;8.10;83.60;;;;;;5045662;28;20022;-92
2024/02/06 12:05:35;;;;;;;10.55;2.95;;;8.10;83.60;;;;;;5020758;28;20443;-90
2024/02/06 12:08:01;;;;;;;6.88;3.42;;;8.10;83.90;;;;;;5022293;28;20032;-93
2024/02/06 12:10:31;;;;;;;5.90;2.55;;;8.30;82.40;;;;;;5035643;28;20021;-91
2024/02/06 12:13:06;;;;;;;6.47;2.60;;;8.50;83.40;;;;;;5035904;28;20022;-91
2024/02/06 12:15:36;;;;;;;5.00;2.78;;;8.40;81.50;;;;;;5021239;28;20079;-90
2024/02/06 12:18:03;;;;;;;6.32;2.78;;;8.40;81.80;;;;;;5034099;28;20021;-92
2024/02/06 12:20:33;;;;;;;6.47;2.97;;;8.50;81.40;;;;;;5035387;28;20017;-90
2024/02/06 12:23:09;;;;;;;5.47;2.35;;;8.60;81.00;;;;;;5036409;28;20029;-92
2024/02/06 12:25:39;;;;;;;5.65;3.00;;;8.80;81.00;;;;;;5038084;28;20041;-90
2024/02/06 12:28:15;;;;;;;6.35;2.05;;;8.80;79.70;;;;;;5035966;28;20022;-90
2024/02/06 12:30:42;;;;;;;8.15;3.20;;;8.90;78.70;;;;;;5037404;28;20017;-92
2024/02/06 12:33:08;;;;;;;5.25;2.38;;;9.00;78.30;;;;;;5014461;28;20113;-90
2024/02/06 12:35:35;;;;;;;3.72;1.80;;;9.00;78.40;;;;;;5020338;28;20060;-90
2024/02/06 12:38:03;;;;;;;4.70;2.83;;;9.10;77.10;;;;;;5038682;28;20026;-91
2024/02/06 12:40:30;;;;;;;3.80;2.80;;;9.00;77.10;;;;;;5022123;28;20089;-91
2024/02/06 12:42:59;;;;;;;5.43;2.75;;;9.10;77.30;;;;;;5038505;28;20048;-89
2024/02/06 12:45:26;;;;;;;3.00;2.55;;;9.20;76.70;;;;;;5037187;28;20495;-90